Terminal Aerodrome Forecast
Issued by NWS

Home | Current Version | Previous Version | Graphics & Text | Print | Product List | Glossary On
Versions: 1 2 3 4 5 6 7 8 9 10 11 12 13 14 15 16 17 18 19 20 21 22 23 24 25 26 27 28 29 30 31 32
906
FTUS43 KABR 151739
TAFATY
TAF
KATY 151739Z 1518/1618 14012G20KT P6SM BKN140
     FM152000 14012KT P6SM VCSH OVC060
     FM160100 12010KT P6SM -SHRA OVC045
     FM160400 14008KT P6SM SHRA OVC020
     FM160700 15007KT 6SM BR OVC015
     FM161300 00000KT 5SM BR OVC003
     FM161500 00000KT P6SM OVC008=

USA.gov is the U.S. government's official web portal to all federal, state and local government web resources and services.